sensor_id;sensor_type;location;lat;lon;timestamp;P1;durP1;ratioP1;P2;durP2;ratioP2
12024;SDS011;6073;53.230;10.444;2023-04-15T00:00:14;13.57;;;9.55;;
12024;SDS011;6073;53.230;10.444;2023-04-15T00:02:40;11.80;;;9.02;;
12024;SDS011;6073;53.230;10.444;2023-04-15T00:05:05;15.02;;;10.13;;
12024;SDS011;6073;53.230;10.444;2023-04-15T00:07:31;13.02;;;9.38;;
12024;SDS011;6073;53.230;10.444;2023-04-15T00:09:57;13.32;;;9.25;;
12024;SDS011;6073;53.230;10.444;2023-04-15T00:12:23;15.05;;;9.27;;
12024;SDS011;6073;53.230;10.444;2023-04-15T00:14:49;14.43;;;10.63;;
12024;SDS011;6073;53.230;10.444;2023-04-15T00:17:15;12.82;;;9.18;;
12024;SDS011;6073;53.230;10.444;2023-04-15T00:19:41;13.55;;;9.60;;
12024;SDS011;6073;53.230;10.444;2023-04-15T00:22:08;13.63;;;10.23;;
12024;SDS011;6073;53.230;10.444;2023-04-15T00:24:34;15.15;;;10.18;;
12024;SDS011;6073;53.230;10.444;2023-04-15T00:26:59;13.85;;;9.45;;
12024;SDS011;6073;53.230;10.444;2023-04-15T00:29:25;13.48;;;9.63;;
12024;SDS011;6073;53.230;10.444;2023-04-15T00:31:50;15.38;;;9.77;;
12024;SDS011;6073;53.230;10.444;2023-04-15T00:34:16;12.95;;;9.00;;
12024;SDS011;6073;53.230;10.444;2023-04-15T00:36:42;11.07;;;7.95;;
12024;SDS011;6073;53.230;10.444;2023-04-15T00:39:08;11.50;;;8.48;;
12024;SDS011;6073;53.230;10.444;2023-04-15T00:41:34;11.38;;;8.10;;
12024;SDS011;6073;53.230;10.444;2023-04-15T00:44:03;12.32;;;8.15;;
12024;SDS011;6073;53.230;10.444;2023-04-15T00:46:29;10.43;;;7.97;;
12024;SDS011;6073;53.230;10.444;2023-04-15T00:48:55;12.27;;;8.25;;
12024;SDS011;6073;53.230;10.444;2023-04-15T00:51:21;11.77;;;7.53;;
12024;SDS011;6073;53.230;10.444;2023-04-15T00:53:46;10.55;;;7.55;;
12024;SDS011;6073;53.230;10.444;2023-04-15T00:56:12;10.65;;;7.82;;
12024;SDS011;6073;53.230;10.444;2023-04-15T00:58:38;8.63;;;7.18;;
12024;SDS011;6073;53.230;10.444;2023-04-15T01:01:03;8.45;;;7.00;;
12024;SDS011;6073;53.230;10.444;2023-04-15T01:03:29;9.65;;;6.47;;
12024;SDS011;6073;53.230;10.444;2023-04-15T01:05:55;9.55;;;6.60;;
12024;SDS011;6073;53.230;10.444;2023-04-15T01:08:29;9.10;;;6.13;;
12024;SDS011;6073;53.230;10.444;2023-04-15T01:10:55;8.57;;;6.47;;
12024;SDS011;6073;53.230;10.444;2023-04-15T01:13:22;10.30;;;6.95;;
12024;SDS011;6073;53.230;10.444;2023-04-15T01:15:48;8.75;;;6.93;;
12024;SDS011;6073;53.230;10.444;2023-04-15T01:18:15;8.77;;;7.03;;
12024;SDS011;6073;53.230;10.444;2023-04-15T01:20:41;11.20;;;7.10;;
12024;SDS011;6073;53.230;10.444;2023-04-15T01:23:07;9.85;;;7.15;;
12024;SDS011;6073;53.230;10.444;2023-04-15T01:25:33;9.23;;;7.10;;
12024;SDS011;6073;53.230;10.444;2023-04-15T01:27:59;9.60;;;7.25;;
12024;SDS011;6073;53.230;10.444;2023-04-15T01:30:25;10.40;;;6.75;;
12024;SDS011;6073;53.230;10.444;2023-04-15T01:32:51;9.77;;;6.57;;
12024;SDS011;6073;53.230;10.444;2023-04-15T01:35:17;9.52;;;7.38;;
12024;SDS011;6073;53.230;10.444;2023-04-15T01:37:43;9.95;;;6.50;;
12024;SDS011;6073;53.230;10.444;2023-04-15T01:40:09;10.40;;;7.45;;
12024;SDS011;6073;53.230;10.444;2023-04-15T01:42:35;9.18;;;7.35;;
12024;SDS011;6073;53.230;10.444;2023-04-15T01:45:01;8.00;;;6.63;;
12024;SDS011;6073;53.230;10.444;2023-04-15T01:47:27;7.90;;;6.97;;
12024;SDS011;6073;53.230;10.444;2023-04-15T01:49:52;9.82;;;6.57;;
12024;SDS011;6073;53.230;10.444;2023-04-15T01:52:18;10.60;;;7.63;;
12024;SDS011;6073;53.230;10.444;2023-04-15T01:54:44;8.50;;;7.05;;
12024;SDS011;6073;53.230;10.444;2023-04-15T01:57:09;10.57;;;7.43;;
12024;SDS011;6073;53.230;10.444;2023-04-15T01:59:35;11.30;;;7.35;;
12024;SDS011;6073;53.230;10.444;2023-04-15T02:02:01;10.75;;;7.55;;
12024;SDS011;6073;53.230;10.444;2023-04-15T02:04:26;9.48;;;7.07;;
12024;SDS011;6073;53.230;10.444;2023-04-15T02:06:52;10.93;;;7.68;;
12024;SDS011;6073;53.230;10.444;2023-04-15T02:09:18;10.30;;;6.90;;
12024;SDS011;6073;53.230;10.444;2023-04-15T02:11:44;10.15;;;7.90;;
12024;SDS011;6073;53.230;10.444;2023-04-15T02:14:09;9.50;;;7.93;;
12024;SDS011;6073;53.230;10.444;2023-04-15T02:16:35;9.63;;;7.93;;
12024;SDS011;6073;53.230;10.444;2023-04-15T02:19:00;11.02;;;8.27;;
12024;SDS011;6073;53.230;10.444;2023-04-15T02:21:27;10.85;;;8.00;;
12024;SDS011;6073;53.230;10.444;2023-04-15T02:23:52;11.02;;;8.10;;
12024;SDS011;6073;53.230;10.444;2023-04-15T02:26:18;8.82;;;7.20;;
12024;SDS011;6073;53.230;10.444;2023-04-15T02:28:45;9.80;;;7.80;;
12024;SDS011;6073;53.230;10.444;2023-04-15T02:31:11;10.95;;;8.23;;
12024;SDS011;6073;53.230;10.444;2023-04-15T02:33:36;11.30;;;8.32;;
12024;SDS011;6073;53.230;10.444;2023-04-15T02:36:02;11.88;;;8.75;;
12024;SDS011;6073;53.230;10.444;2023-04-15T02:38:28;10.35;;;7.75;;
12024;SDS011;6073;53.230;10.444;2023-04-15T02:40:55;12.75;;;9.07;;
12024;SDS011;6073;53.230;10.444;2023-04-15T02:43:21;11.35;;;8.68;;
12024;SDS011;6073;53.230;10.444;2023-04-15T02:45:46;11.50;;;8.73;;
12024;SDS011;6073;53.230;10.444;2023-04-15T02:48:12;13.98;;;8.45;;
12024;SDS011;6073;53.230;10.444;2023-04-15T02:50:37;12.98;;;9.15;;
12024;SDS011;6073;53.230;10.444;2023-04-15T02:53:04;11.77;;;9.40;;
12024;SDS011;6073;53.230;10.444;2023-04-15T02:55:30;13.95;;;10.00;;
12024;SDS011;6073;53.230;10.444;2023-04-15T02:57:56;13.18;;;9.88;;
12024;SDS011;6073;53.230;10.444;2023-04-15T03:00:24;12.55;;;9.27;;
12024;SDS011;6073;53.230;10.444;2023-04-15T03:02:50;12.05;;;9.07;;
12024;SDS011;6073;53.230;10.444;2023-04-15T03:05:20;13.90;;;10.02;;
12024;SDS011;6073;53.230;10.444;2023-04-15T03:07:47;14.77;;;9.43;;
12024;SDS011;6073;53.230;10.444;2023-04-15T03:10:13;13.27;;;9.68;;
12024;SDS011;6073;53.230;10.444;2023-04-15T03:12:38;12.90;;;9.02;;
12024;SDS011;6073;53.230;10.444;2023-04-15T03:15:04;13.35;;;9.68;;
12024;SDS011;6073;53.230;10.444;2023-04-15T03:17:30;15.65;;;10.57;;
12024;SDS011;6073;53.230;10.444;2023-04-15T03:19:56;15.70;;;10.85;;
12024;SDS011;6073;53.230;10.444;2023-04-15T03:22:21;13.63;;;10.23;;
12024;SDS011;6073;53.230;10.444;2023-04-15T03:24:47;15.63;;;10.52;;
12024;SDS011;6073;53.230;10.444;2023-04-15T03:27:13;17.35;;;10.80;;
12024;SDS011;6073;53.230;10.444;2023-04-15T03:29:38;16.92;;;11.15;;
12024;SDS011;6073;53.230;10.444;2023-04-15T03:32:04;19.05;;;12.25;;
12024;SDS011;6073;53.230;10.444;2023-04-15T03:34:29;15.38;;;10.85;;
12024;SDS011;6073;53.230;10.444;2023-04-15T03:36:55;18.88;;;12.38;;
12024;SDS011;6073;53.230;10.444;2023-04-15T03:39:21;19.42;;;11.75;;
12024;SDS011;6073;53.230;10.444;2023-04-15T03:41:46;19.95;;;13.07;;
12024;SDS011;6073;53.230;10.444;2023-04-15T03:44:12;19.52;;;12.57;;
12024;SDS011;6073;53.230;10.444;2023-04-15T03:46:37;18.85;;;12.18;;
12024;SDS011;6073;53.230;10.444;2023-04-15T03:49:05;20.83;;;13.05;;
12024;SDS011;6073;53.230;10.444;2023-04-15T03:51:31;24.10;;;14.60;;
12024;SDS011;6073;53.230;10.444;2023-04-15T03:53:56;21.00;;;13.50;;
12024;SDS011;6073;53.230;10.444;2023-04-15T03:56:22;23.15;;;13.27;;
12024;SDS011;6073;53.230;10.444;2023-04-15T03:58:48;23.25;;;13.82;;
12024;SDS011;6073;53.230;10.444;2023-04-15T04:01:14;26.20;;;14.30;;
12024;SDS011;6073;53.230;10.444;2023-04-15T04:03:40;23.67;;;14.13;;
12024;SDS011;6073;53.230;10.444;2023-04-15T04:06:06;23.98;;;14.38;;
12024;SDS011;6073;53.230;10.444;2023-04-15T04:08:32;28.48;;;15.55;;
12024;SDS011;6073;53.230;10.444;2023-04-15T04:10:57;27.98;;;16.33;;
12024;SDS011;6073;53.230;10.444;2023-04-15T04:13:23;25.35;;;15.40;;
12024;SDS011;6073;53.230;10.444;2023-04-15T04:15:48;29.00;;;15.73;;
12024;SDS011;6073;53.230;10.444;2023-04-15T04:18:14;27.08;;;15.98;;
12024;SDS011;6073;53.230;10.444;2023-04-15T04:20:40;23.30;;;15.48;;
12024;SDS011;6073;53.230;10.444;2023-04-15T04:23:06;26.58;;;15.55;;
12024;SDS011;6073;53.230;10.444;2023-04-15T04:25:31;23.35;;;14.02;;
12024;SDS011;6073;53.230;10.444;2023-04-15T04:27:57;28.45;;;16.08;;
12024;SDS011;6073;53.230;10.444;2023-04-15T04:30:23;28.85;;;16.45;;
12024;SDS011;6073;53.230;10.444;2023-04-15T04:32:49;28.25;;;15.85;;
12024;SDS011;6073;53.230;10.444;2023-04-15T04:35:15;28.40;;;16.13;;
12024;SDS011;6073;53.230;10.444;2023-04-15T04:37:40;28.23;;;16.48;;
12024;SDS011;6073;53.230;10.444;2023-04-15T04:40:06;28.05;;;16.30;;
12024;SDS011;6073;53.230;10.444;2023-04-15T04:42:33;33.10;;;17.15;;
12024;SDS011;6073;53.230;10.444;2023-04-15T04:44:59;30.92;;;17.02;;
12024;SDS011;6073;53.230;10.444;2023-04-15T04:47:24;28.98;;;17.23;;
12024;SDS011;6073;53.230;10.444;2023-04-15T04:49:50;27.60;;;16.40;;
12024;SDS011;6073;53.230;10.444;2023-04-15T04:52:15;29.20;;;17.00;;
12024;SDS011;6073;53.230;10.444;2023-04-15T04:54:41;28.38;;;16.67;;
12024;SDS011;6073;53.230;10.444;2023-04-15T04:57:06;30.17;;;15.77;;
12024;SDS011;6073;53.230;10.444;2023-04-15T04:59:32;25.10;;;15.18;;
12024;SDS011;6073;53.230;10.444;2023-04-15T05:01:57;31.00;;;15.90;;
12024;SDS011;6073;53.230;10.444;2023-04-15T05:04:23;30.05;;;16.08;;
12024;SDS011;6073;53.230;10.444;2023-04-15T05:06:50;28.75;;;15.90;;
12024;SDS011;6073;53.230;10.444;2023-04-15T05:09:15;31.00;;;18.00;;
12024;SDS011;6073;53.230;10.444;2023-04-15T05:11:41;29.33;;;17.52;;
12024;SDS011;6073;53.230;10.444;2023-04-15T05:14:07;58.67;;;35.78;;
12024;SDS011;6073;53.230;10.444;2023-04-15T05:16:32;34.05;;;19.08;;
12024;SDS011;6073;53.230;10.444;2023-04-15T05:18:58;34.47;;;18.45;;
12024;SDS011;6073;53.230;10.444;2023-04-15T05:21:23;35.78;;;20.00;;
12024;SDS011;6073;53.230;10.444;2023-04-15T05:23:49;34.83;;;20.23;;
12024;SDS011;6073;53.230;10.444;2023-04-15T05:26:15;34.75;;;19.25;;
12024;SDS011;6073;53.230;10.444;2023-04-15T05:28:41;35.72;;;19.50;;
12024;SDS011;6073;53.230;10.444;2023-04-15T05:31:07;37.55;;;20.30;;
12024;SDS011;6073;53.230;10.444;2023-04-15T05:33:32;39.58;;;20.10;;
12024;SDS011;6073;53.230;10.444;2023-04-15T05:35:58;35.88;;;19.33;;
12024;SDS011;6073;53.230;10.444;2023-04-15T05:38:23;36.10;;;19.73;;
12024;SDS011;6073;53.230;10.444;2023-04-15T05:40:49;34.40;;;18.08;;
12024;SDS011;6073;53.230;10.444;2023-04-15T05:43:14;38.92;;;21.33;;
12024;SDS011;6073;53.230;10.444;2023-04-15T05:45:40;36.58;;;19.33;;
12024;SDS011;6073;53.230;10.444;2023-04-15T05:48:05;40.05;;;21.35;;
12024;SDS011;6073;53.230;10.444;2023-04-15T05:50:31;40.85;;;20.70;;
12024;SDS011;6073;53.230;10.444;2023-04-15T05:52:56;37.28;;;20.65;;
12024;SDS011;6073;53.230;10.444;2023-04-15T05:55:22;39.03;;;20.90;;
12024;SDS011;6073;53.230;10.444;2023-04-15T05:57:48;38.55;;;21.23;;
12024;SDS011;6073;53.230;10.444;2023-04-15T06:00:13;41.58;;;21.38;;
12024;SDS011;6073;53.230;10.444;2023-04-15T06:02:39;37.15;;;19.80;;
12024;SDS011;6073;53.230;10.444;2023-04-15T06:05:05;40.20;;;22.05;;
12024;SDS011;6073;53.230;10.444;2023-04-15T06:07:35;39.78;;;21.05;;
12024;SDS011;6073;53.230;10.444;2023-04-15T06:10:02;38.03;;;21.33;;
12024;SDS011;6073;53.230;10.444;2023-04-15T06:12:28;38.83;;;20.65;;
12024;SDS011;6073;53.230;10.444;2023-04-15T06:14:53;40.67;;;21.52;;
12024;SDS011;6073;53.230;10.444;2023-04-15T06:17:19;39.83;;;21.85;;
12024;SDS011;6073;53.230;10.444;2023-04-15T06:19:44;40.28;;;21.70;;
12024;SDS011;6073;53.230;10.444;2023-04-15T06:22:10;37.03;;;22.08;;
12024;SDS011;6073;53.230;10.444;2023-04-15T06:24:36;38.88;;;22.60;;
12024;SDS011;6073;53.230;10.444;2023-04-15T06:27:01;41.85;;;23.25;;
12024;SDS011;6073;53.230;10.444;2023-04-15T06:29:27;45.15;;;25.35;;
12024;SDS011;6073;53.230;10.444;2023-04-15T06:31:53;43.65;;;23.75;;
12024;SDS011;6073;53.230;10.444;2023-04-15T06:34:20;39.20;;;22.38;;
12024;SDS011;6073;53.230;10.444;2023-04-15T06:36:45;46.17;;;25.40;;
12024;SDS011;6073;53.230;10.444;2023-04-15T06:39:11;41.80;;;24.60;;
12024;SDS011;6073;53.230;10.444;2023-04-15T06:41:36;46.78;;;25.38;;
12024;SDS011;6073;53.230;10.444;2023-04-15T06:44:02;41.88;;;24.75;;
12024;SDS011;6073;53.230;10.444;2023-04-15T06:46:28;45.55;;;26.88;;
12024;SDS011;6073;53.230;10.444;2023-04-15T06:48:53;43.28;;;25.92;;
12024;SDS011;6073;53.230;10.444;2023-04-15T06:51:19;48.78;;;27.85;;
12024;SDS011;6073;53.230;10.444;2023-04-15T06:53:44;41.58;;;25.02;;
12024;SDS011;6073;53.230;10.444;2023-04-15T06:56:10;48.35;;;26.95;;
12024;SDS011;6073;53.230;10.444;2023-04-15T06:58:35;46.28;;;28.52;;
12024;SDS011;6073;53.230;10.444;2023-04-15T07:01:01;44.42;;;26.63;;
12024;SDS011;6073;53.230;10.444;2023-04-15T07:03:27;46.63;;;26.80;;
12024;SDS011;6073;53.230;10.444;2023-04-15T07:05:53;44.70;;;26.40;;
12024;SDS011;6073;53.230;10.444;2023-04-15T07:08:18;47.17;;;27.90;;
12024;SDS011;6073;53.230;10.444;2023-04-15T07:10:45;47.47;;;27.50;;
12024;SDS011;6073;53.230;10.444;2023-04-15T07:13:11;44.85;;;27.33;;
12024;SDS011;6073;53.230;10.444;2023-04-15T07:15:36;52.33;;;29.85;;
12024;SDS011;6073;53.230;10.444;2023-04-15T07:18:02;47.20;;;29.63;;
12024;SDS011;6073;53.230;10.444;2023-04-15T07:20:28;47.78;;;28.65;;
12024;SDS011;6073;53.230;10.444;2023-04-15T07:22:53;50.03;;;29.38;;
12024;SDS011;6073;53.230;10.444;2023-04-15T07:25:19;44.67;;;27.70;;
12024;SDS011;6073;53.230;10.444;2023-04-15T07:27:44;45.08;;;28.55;;
12024;SDS011;6073;53.230;10.444;2023-04-15T07:30:10;43.42;;;27.30;;
12024;SDS011;6073;53.230;10.444;2023-04-15T07:32:36;46.78;;;28.52;;
12024;SDS011;6073;53.230;10.444;2023-04-15T07:35:02;48.03;;;29.02;;
12024;SDS011;6073;53.230;10.444;2023-04-15T07:37:28;44.13;;;26.80;;
12024;SDS011;6073;53.230;10.444;2023-04-15T07:39:54;43.13;;;27.25;;
12024;SDS011;6073;53.230;10.444;2023-04-15T07:42:20;42.78;;;26.63;;
12024;SDS011;6073;53.230;10.444;2023-04-15T07:44:46;46.67;;;27.60;;
12024;SDS011;6073;53.230;10.444;2023-04-15T07:47:11;45.33;;;27.00;;
12024;SDS011;6073;53.230;10.444;2023-04-15T07:49:37;46.13;;;26.88;;
12024;SDS011;6073;53.230;10.444;2023-04-15T07:52:02;42.60;;;25.67;;
12024;SDS011;6073;53.230;10.444;2023-04-15T07:54:28;44.75;;;25.60;;
12024;SDS011;6073;53.230;10.444;2023-04-15T07:56:53;46.22;;;27.88;;
12024;SDS011;6073;53.230;10.444;2023-04-15T07:59:20;48.08;;;27.90;;
12024;SDS011;6073;53.230;10.444;2023-04-15T08:01:46;50.47;;;28.42;;
12024;SDS011;6073;53.230;10.444;2023-04-15T08:04:12;45.00;;;26.80;;
12024;SDS011;6073;53.230;10.444;2023-04-15T08:06:38;48.72;;;28.30;;
12024;SDS011;6073;53.230;10.444;2023-04-15T08:09:04;42.70;;;25.95;;
12024;SDS011;6073;53.230;10.444;2023-04-15T08:11:30;41.60;;;26.73;;
12024;SDS011;6073;53.230;10.444;2023-04-15T08:13:55;44.10;;;26.75;;
12024;SDS011;6073;53.230;10.444;2023-04-15T08:16:24;43.90;;;26.83;;
12024;SDS011;6073;53.230;10.444;2023-04-15T08:18:55;43.40;;;26.30;;
12024;SDS011;6073;53.230;10.444;2023-04-15T08:21:21;45.05;;;28.70;;
12024;SDS011;6073;53.230;10.444;2023-04-15T08:23:48;44.38;;;27.13;;
12024;SDS011;6073;53.230;10.444;2023-04-15T08:26:15;44.30;;;27.80;;
12024;SDS011;6073;53.230;10.444;2023-04-15T08:28:41;48.05;;;29.30;;
12024;SDS011;6073;53.230;10.444;2023-04-15T08:31:08;46.40;;;29.08;;
12024;SDS011;6073;53.230;10.444;2023-04-15T08:33:34;47.38;;;27.75;;
12024;SDS011;6073;53.230;10.444;2023-04-15T08:35:59;47.72;;;27.75;;
12024;SDS011;6073;53.230;10.444;2023-04-15T08:38:25;48.70;;;29.27;;
12024;SDS011;6073;53.230;10.444;2023-04-15T08:40:50;50.20;;;27.95;;
12024;SDS011;6073;53.230;10.444;2023-04-15T08:43:24;45.72;;;27.10;;
12024;SDS011;6073;53.230;10.444;2023-04-15T08:45:52;47.55;;;27.38;;
12024;SDS011;6073;53.230;10.444;2023-04-15T08:48:19;49.20;;;28.50;;
12024;SDS011;6073;53.230;10.444;2023-04-15T08:50:46;46.05;;;27.35;;
12024;SDS011;6073;53.230;10.444;2023-04-15T08:53:12;49.85;;;29.08;;
12024;SDS011;6073;53.230;10.444;2023-04-15T08:55:41;50.72;;;29.48;;
12024;SDS011;6073;53.230;10.444;2023-04-15T08:58:09;47.72;;;28.67;;
12024;SDS011;6073;53.230;10.444;2023-04-15T09:00:35;44.88;;;29.77;;
12024;SDS011;6073;53.230;10.444;2023-04-15T09:03:03;43.58;;;27.77;;
12024;SDS011;6073;53.230;10.444;2023-04-15T09:05:33;47.92;;;28.23;;
12024;SDS011;6073;53.230;10.444;2023-04-15T09:08:00;48.70;;;29.42;;
12024;SDS011;6073;53.230;10.444;2023-04-15T09:10:26;46.85;;;28.98;;
12024;SDS011;6073;53.230;10.444;2023-04-15T09:12:53;48.83;;;29.50;;
12024;SDS011;6073;53.230;10.444;2023-04-15T09:15:19;45.97;;;27.58;;
12024;SDS011;6073;53.230;10.444;2023-04-15T09:17:44;48.13;;;28.55;;
12024;SDS011;6073;53.230;10.444;2023-04-15T09:20:11;40.70;;;26.55;;
12024;SDS011;6073;53.230;10.444;2023-04-15T09:22:41;40.50;;;26.25;;
12024;SDS011;6073;53.230;10.444;2023-04-15T09:27:48;44.53;;;27.13;;
12024;SDS011;6073;53.230;10.444;2023-04-15T09:30:15;41.78;;;27.23;;
12024;SDS011;6073;53.230;10.444;2023-04-15T09:32:51;41.05;;;26.23;;
12024;SDS011;6073;53.230;10.444;2023-04-15T09:35:18;40.50;;;26.92;;
12024;SDS011;6073;53.230;10.444;2023-04-15T09:37:45;39.95;;;25.10;;
12024;SDS011;6073;53.230;10.444;2023-04-15T09:40:11;39.55;;;25.77;;
12024;SDS011;6073;53.230;10.444;2023-04-15T09:42:52;38.05;;;24.55;;
12024;SDS011;6073;53.230;10.444;2023-04-15T09:45:20;37.28;;;24.45;;
12024;SDS011;6073;53.230;10.444;2023-04-15T09:47:46;40.80;;;25.35;;
12024;SDS011;6073;53.230;10.444;2023-04-15T09:50:12;36.10;;;23.70;;
12024;SDS011;6073;53.230;10.444;2023-04-15T09:52:41;37.05;;;23.40;;
12024;SDS011;6073;53.230;10.444;2023-04-15T09:55:08;37.15;;;22.85;;
12024;SDS011;6073;53.230;10.444;2023-04-15T09:57:35;37.00;;;25.70;;
12024;SDS011;6073;53.230;10.444;2023-04-15T10:00:02;35.75;;;23.42;;
12024;SDS011;6073;53.230;10.444;2023-04-15T10:02:29;35.70;;;24.25;;
12024;SDS011;6073;53.230;10.444;2023-04-15T10:04:55;35.55;;;23.63;;
12024;SDS011;6073;53.230;10.444;2023-04-15T10:07:21;34.63;;;23.42;;
12024;SDS011;6073;53.230;10.444;2023-04-15T10:09:47;37.78;;;23.58;;
12024;SDS011;6073;53.230;10.444;2023-04-15T10:12:13;36.63;;;23.95;;
12024;SDS011;6073;53.230;10.444;2023-04-15T10:14:43;35.00;;;23.80;;
12024;SDS011;6073;53.230;10.444;2023-04-15T10:17:12;32.30;;;21.52;;
12024;SDS011;6073;53.230;10.444;2023-04-15T10:19:41;32.35;;;22.60;;
12024;SDS011;6073;53.230;10.444;2023-04-15T10:22:07;35.47;;;22.63;;
12024;SDS011;6073;53.230;10.444;2023-04-15T10:24:33;30.58;;;22.58;;
12024;SDS011;6073;53.230;10.444;2023-04-15T10:26:59;33.60;;;22.00;;
12024;SDS011;6073;53.230;10.444;2023-04-15T10:29:26;30.15;;;21.92;;
12024;SDS011;6073;53.230;10.444;2023-04-15T10:31:53;32.55;;;22.88;;
12024;SDS011;6073;53.230;10.444;2023-04-15T10:34:23;30.23;;;20.88;;
12024;SDS011;6073;53.230;10.444;2023-04-15T10:36:49;30.58;;;21.10;;
12024;SDS011;6073;53.230;10.444;2023-04-15T10:42:13;26.63;;;20.33;;
12024;SDS011;6073;53.230;10.444;2023-04-15T10:44:44;30.08;;;21.05;;
12024;SDS011;6073;53.230;10.444;2023-04-15T10:47:16;28.35;;;20.70;;
12024;SDS011;6073;53.230;10.444;2023-04-15T10:49:47;28.30;;;21.02;;
12024;SDS011;6073;53.230;10.444;2023-04-15T10:52:15;25.17;;;20.05;;
12024;SDS011;6073;53.230;10.444;2023-04-15T10:54:42;28.42;;;20.80;;
12024;SDS011;6073;53.230;10.444;2023-04-15T10:57:12;28.42;;;20.08;;
12024;SDS011;6073;53.230;10.444;2023-04-15T11:02:37;23.90;;;17.75;;
12024;SDS011;6073;53.230;10.444;2023-04-15T11:05:04;26.10;;;19.13;;
12024;SDS011;6073;53.230;10.444;2023-04-15T11:12:43;19.50;;;16.52;;
12024;SDS011;6073;53.230;10.444;2023-04-15T11:17:58;19.88;;;16.80;;
12024;SDS011;6073;53.230;10.444;2023-04-15T11:20:32;20.63;;;17.00;;
12024;SDS011;6073;53.230;10.444;2023-04-15T11:22:58;21.98;;;17.75;;
12024;SDS011;6073;53.230;10.444;2023-04-15T11:25:28;18.85;;;16.70;;
12024;SDS011;6073;53.230;10.444;2023-04-15T11:27:55;20.75;;;16.58;;
12024;SDS011;6073;53.230;10.444;2023-04-15T11:30:25;22.25;;;17.98;;
12024;SDS011;6073;53.230;10.444;2023-04-15T11:32:53;20.65;;;17.13;;
12024;SDS011;6073;53.230;10.444;2023-04-15T11:35:21;19.42;;;16.65;;
12024;SDS011;6073;53.230;10.444;2023-04-15T11:37:47;17.80;;;14.95;;
12024;SDS011;6073;53.230;10.444;2023-04-15T11:40:14;19.50;;;16.13;;
12024;SDS011;6073;53.230;10.444;2023-04-15T11:42:42;19.65;;;17.45;;
12024;SDS011;6073;53.230;10.444;2023-04-15T11:45:09;21.10;;;16.73;;
12024;SDS011;6073;53.230;10.444;2023-04-15T11:47:39;18.38;;;15.90;;
12024;SDS011;6073;53.230;10.444;2023-04-15T11:50:13;22.02;;;16.83;;
12024;SDS011;6073;53.230;10.444;2023-04-15T11:52:55;21.45;;;17.00;;
12024;SDS011;6073;53.230;10.444;2023-04-15T11:55:21;22.17;;;17.27;;
12024;SDS011;6073;53.230;10.444;2023-04-15T11:57:48;21.48;;;17.45;;
12024;SDS011;6073;53.230;10.444;2023-04-15T12:00:15;22.73;;;17.40;;
12024;SDS011;6073;53.230;10.444;2023-04-15T12:02:41;21.10;;;17.45;;
12024;SDS011;6073;53.230;10.444;2023-04-15T12:05:07;20.65;;;16.50;;
12024;SDS011;6073;53.230;10.444;2023-04-15T12:07:34;18.75;;;16.42;;
12024;SDS011;6073;53.230;10.444;2023-04-15T12:10:25;21.60;;;16.30;;
12024;SDS011;6073;53.230;10.444;2023-04-15T12:12:53;21.33;;;17.00;;
12024;SDS011;6073;53.230;10.444;2023-04-15T12:15:20;21.60;;;18.02;;
12024;SDS011;6073;53.230;10.444;2023-04-15T12:17:47;19.92;;;16.23;;
12024;SDS011;6073;53.230;10.444;2023-04-15T12:20:19;20.20;;;17.02;;
12024;SDS011;6073;53.230;10.444;2023-04-15T12:22:46;18.40;;;15.95;;
12024;SDS011;6073;53.230;10.444;2023-04-15T12:25:11;20.55;;;17.05;;
12024;SDS011;6073;53.230;10.444;2023-04-15T12:27:37;21.40;;;16.73;;
12024;SDS011;6073;53.230;10.444;2023-04-15T12:30:03;19.13;;;16.30;;
12024;SDS011;6073;53.230;10.444;2023-04-15T12:32:29;19.17;;;15.95;;
12024;SDS011;6073;53.230;10.444;2023-04-15T12:34:59;20.05;;;16.25;;
12024;SDS011;6073;53.230;10.444;2023-04-15T12:37:25;21.33;;;16.60;;
12024;SDS011;6073;53.230;10.444;2023-04-15T12:39:51;19.75;;;16.88;;
12024;SDS011;6073;53.230;10.444;2023-04-15T12:42:18;21.25;;;17.23;;
12024;SDS011;6073;53.230;10.444;2023-04-15T12:44:44;19.58;;;16.00;;
12024;SDS011;6073;53.230;10.444;2023-04-15T12:47:10;18.75;;;16.10;;
12024;SDS011;6073;53.230;10.444;2023-04-15T12:49:36;20.23;;;15.35;;
12024;SDS011;6073;53.230;10.444;2023-04-15T12:52:03;17.77;;;15.05;;
12024;SDS011;6073;53.230;10.444;2023-04-15T12:54:29;17.15;;;14.90;;
12024;SDS011;6073;53.230;10.444;2023-04-15T12:56:55;21.17;;;15.68;;
12024;SDS011;6073;53.230;10.444;2023-04-15T12:59:22;19.00;;;15.38;;
12024;SDS011;6073;53.230;10.444;2023-04-15T13:01:48;19.15;;;15.95;;
12024;SDS011;6073;53.230;10.444;2023-04-15T13:04:15;16.08;;;13.32;;
12024;SDS011;6073;53.230;10.444;2023-04-15T13:06:41;15.85;;;14.13;;
12024;SDS011;6073;53.230;10.444;2023-04-15T13:09:07;18.92;;;14.15;;
12024;SDS011;6073;53.230;10.444;2023-04-15T13:11:33;16.02;;;13.63;;
12024;SDS011;6073;53.230;10.444;2023-04-15T13:14:00;19.70;;;15.73;;
12024;SDS011;6073;53.230;10.444;2023-04-15T13:16:26;15.85;;;13.80;;
12024;SDS011;6073;53.230;10.444;2023-04-15T13:18:52;14.40;;;12.90;;
12024;SDS011;6073;53.230;10.444;2023-04-15T13:21:18;13.90;;;12.48;;
12024;SDS011;6073;53.230;10.444;2023-04-15T13:23:44;16.38;;;11.85;;
12024;SDS011;6073;53.230;10.444;2023-04-15T13:26:09;15.70;;;13.25;;
12024;SDS011;6073;53.230;10.444;2023-04-15T13:28:35;14.25;;;11.93;;
12024;SDS011;6073;53.230;10.444;2023-04-15T13:31:01;12.88;;;11.45;;
12024;SDS011;6073;53.230;10.444;2023-04-15T13:33:26;15.10;;;12.07;;
12024;SDS011;6073;53.230;10.444;2023-04-15T13:35:52;13.43;;;11.30;;
12024;SDS011;6073;53.230;10.444;2023-04-15T13:38:18;14.85;;;12.20;;
12024;SDS011;6073;53.230;10.444;2023-04-15T13:40:43;12.88;;;11.30;;
12024;SDS011;6073;53.230;10.444;2023-04-15T13:43:09;12.73;;;11.43;;
12024;SDS011;6073;53.230;10.444;2023-04-15T13:45:35;14.40;;;11.88;;
12024;SDS011;6073;53.230;10.444;2023-04-15T13:48:01;15.70;;;12.43;;
12024;SDS011;6073;53.230;10.444;2023-04-15T13:50:27;13.07;;;10.55;;
12024;SDS011;6073;53.230;10.444;2023-04-15T13:52:53;13.23;;;11.00;;
12024;SDS011;6073;53.230;10.444;2023-04-15T13:55:18;13.13;;;11.73;;
12024;SDS011;6073;53.230;10.444;2023-04-15T13:57:44;13.05;;;11.27;;
12024;SDS011;6073;53.230;10.444;2023-04-15T14:00:10;12.32;;;10.30;;
12024;SDS011;6073;53.230;10.444;2023-04-15T14:02:36;13.05;;;11.75;;
12024;SDS011;6073;53.230;10.444;2023-04-15T14:05:01;15.98;;;12.32;;
12024;SDS011;6073;53.230;10.444;2023-04-15T14:07:30;14.05;;;12.57;;
12024;SDS011;6073;53.230;10.444;2023-04-15T14:09:56;16.88;;;12.88;;
12024;SDS011;6073;53.230;10.444;2023-04-15T14:12:22;15.07;;;12.70;;
12024;SDS011;6073;53.230;10.444;2023-04-15T14:14:47;12.90;;;11.30;;
12024;SDS011;6073;53.230;10.444;2023-04-15T14:17:13;13.68;;;11.75;;
12024;SDS011;6073;53.230;10.444;2023-04-15T14:19:38;12.38;;;11.07;;
12024;SDS011;6073;53.230;10.444;2023-04-15T14:22:04;11.55;;;10.13;;
12024;SDS011;6073;53.230;10.444;2023-04-15T14:24:30;12.77;;;10.85;;
12024;SDS011;6073;53.230;10.444;2023-04-15T14:26:55;12.23;;;10.30;;
12024;SDS011;6073;53.230;10.444;2023-04-15T14:29:22;11.02;;;9.82;;
12024;SDS011;6073;53.230;10.444;2023-04-15T14:31:48;11.40;;;10.15;;
12024;SDS011;6073;53.230;10.444;2023-04-15T14:34:14;12.73;;;10.05;;
12024;SDS011;6073;53.230;10.444;2023-04-15T14:36:40;10.85;;;9.65;;